Time;durP1;ratioP1;P1;durP2;ratioP2;P2;SDS_P1;SDS_P2;PMS_P1;PMS_P2;Temp;Humidity;BMP_temperature;BMP_pressure;BME280_temperature;BME280_humidity;BME280_pressure;Samples;Min_cycle;Max_cycle;Signal;HPM_P1;HPM_P2
2021/11/11 00:02:18;;;;;;;;;;;;;;;12.65;100.00;99652.31;5053550;28;20017;-85
2021/11/11 00:04:45;;;;;;;;;;;;;;;12.70;100.00;99654.66;5069507;28;19981;-85
2021/11/11 00:07:12;;;;;;;;;;;;;;;12.45;100.00;99665.41;5053189;28;19925;-85
2021/11/11 00:09:40;;;;;;;;;;;;;;;12.41;100.00;99653.47;5073763;28;20402;-85
2021/11/11 00:12:08;;;;;;;;;;;;;;;12.56;100.00;99657.66;5053178;28;19947;-85
2021/11/11 00:14:35;;;;;;;;;;;;;;;12.58;100.00;99646.81;5069701;28;20025;-85
2021/11/11 00:17:02;;;;;;;;;;;;;;;12.73;100.00;99651.00;5089874;28;19928;-86
2021/11/11 00:19:29;;;;;;;;;;;;;;;12.62;100.00;99650.34;5056699;28;20062;-86
2021/11/11 00:21:56;;;;;;;;;;;;;;;12.14;100.00;99655.44;5055291;28;19925;-86
2021/11/11 00:24:24;;;;;;;;;;;;;;;12.03;100.00;99654.78;5089997;28;19924;-86
2021/11/11 00:26:51;;;;;;;;;;;;;;;12.26;100.00;99668.88;5070729;28;20449;-85
2021/11/11 00:29:19;;;;;;;;;;;;;;;12.45;100.00;99659.81;5089842;28;19928;-86
2021/11/11 00:31:46;;;;;;;;;;;;;;;12.63;100.00;99660.34;5056724;28;20296;-86
2021/11/11 00:34:13;;;;;;;;;;;;;;;12.71;100.00;99645.00;5050743;28;20019;-86
2021/11/11 00:36:40;;;;;;;;;;;;;;;12.75;100.00;99651.34;5097712;28;20341;-85
2021/11/11 00:39:07;;;;;;;;;;;;;;;12.80;100.00;99644.47;5056144;28;19924;-86
2021/11/11 00:41:35;;;;;;;;;;;;;;;12.85;100.00;99654.41;5039588;28;19956;-83
2021/11/11 00:44:02;;;;;;;;;;;;;;;12.89;100.00;99655.16;5072907;28;19928;-82
2021/11/11 00:46:29;;;;;;;;;;;;;;;12.91;100.00;99641.47;5056295;28;19931;-83
2021/11/11 00:48:56;;;;;;;;;;;;;;;12.96;100.00;99643.81;5073059;28;20329;-83
2021/11/11 00:51:23;;;;;;;;;;;;;;;12.96;100.00;99643.81;5106267;28;20430;-84
2021/11/11 00:53:51;;;;;;;;;;;;;;;12.94;100.00;99640.63;5072724;28;20383;-84
2021/11/11 00:56:18;;;;;;;;;;;;;;;12.96;100.00;99641.81;5089296;28;20027;-84
2021/11/11 00:58:47;;;;;;;;;;;;;;;12.99;100.00;99635.34;5073287;28;20074;-84
2021/11/11 01:01:14;;;;;;;;;;;;;;;12.99;100.00;99645.75;5089549;28;20440;-84
2021/11/11 01:03:41;;;;;;;;;;;;;;;12.97;100.00;99648.19;5025536;28;20261;-84
2021/11/11 01:06:08;;;;;;;;;;;;;;;12.97;100.00;99645.38;5072412;28;19932;-84
2021/11/11 01:08:35;;;;;;;;;;;;;;;12.98;100.00;99649.81;5089122;28;20272;-84
2021/11/11 01:11:04;;;;;;;;;;;;;;;12.97;100.00;99653.81;5089146;28;19928;-84
2021/11/11 01:13:31;;;;;;;;;;;;;;;12.96;100.00;99639.00;5056014;28;19928;-84
2021/11/11 01:15:59;;;;;;;;;;;;;;;13.00;100.00;99647.38;5073609;28;19924;-84
2021/11/11 01:18:27;;;;;;;;;;;;;;;13.03;100.00;99638.09;5054221;28;19974;-84
2021/11/11 01:20:55;;;;;;;;;;;;;;;13.02;100.00;99637.34;5055732;28;19940;-84
2021/11/11 01:23:22;;;;;;;;;;;;;;;12.97;100.00;99631.38;5072683;28;19932;-84
2021/11/11 01:25:50;;;;;;;;;;;;;;;12.99;100.00;99631.75;5052709;28;19932;-84
2021/11/11 01:28:17;;;;;;;;;;;;;;;12.95;100.00;99633.81;5052542;28;19925;-83
2021/11/11 01:30:45;;;;;;;;;;;;;;;12.98;100.00;99632.97;5076523;28;19925;-84
2021/11/11 01:33:35;;;;;;;;;;;;;;;13.02;100.00;99639.34;5092925;28;19948;-84
2021/11/11 01:36:04;;;;;;;;;;;;;;;12.92;100.00;99637.47;5092915;28;20031;-84
2021/11/11 01:38:58;;;;;;;;;;;;;;;13.04;100.00;99645.31;5059607;28;19931;-83
2021/11/11 01:41:43;;;;;;;;;;;;;;;12.85;100.00;99643.19;5056392;28;19983;-83
2021/11/11 01:44:12;;;;;;;;;;;;;;;12.93;100.00;99639.06;5090747;28;19928;-84
2021/11/11 01:46:39;;;;;;;;;;;;;;;12.85;100.00;99637.56;5059502;28;19930;-84
2021/11/11 01:49:07;;;;;;;;;;;;;;;12.81;100.00;99634.03;5092888;28;19924;-84
2021/11/11 01:51:35;;;;;;;;;;;;;;;12.72;100.00;99628.97;5092951;28;19925;-84
2021/11/11 01:54:04;;;;;;;;;;;;;;;12.66;100.00;99623.03;5059793;28;19924;-83
2021/11/11 01:56:32;;;;;;;;;;;;;;;12.87;100.00;99623.94;5075816;28;19928;-84
2021/11/11 01:59:19;;;;;;;;;;;;;;;12.93;100.00;99625.84;5104432;28;19935;-84
2021/11/11 02:01:46;;;;;;;;;;;;;;;12.79;100.00;99617.66;5092886;28;19931;-83
2021/11/11 02:04:14;;;;;;;;;;;;;;;12.98;100.00;99618.94;5072319;28;19931;-84
2021/11/11 02:06:50;;;;;;;;;;;;;;;13.07;100.00;99622.78;5072305;28;19978;-83
2021/11/11 02:09:25;;;;;;;;;;;;;;;13.10;100.00;99616.34;5055840;28;20010;-84
2021/11/11 02:12:08;;;;;;;;;;;;;;;13.16;100.00;99616.66;5090140;28;19925;-83
2021/11/11 02:14:37;;;;;;;;;;;;;;;13.10;100.00;99615.56;5059369;28;19924;-83
2021/11/11 02:17:06;;;;;;;;;;;;;;;13.13;100.00;99615.47;5075616;28;19974;-83
2021/11/11 02:19:44;;;;;;;;;;;;;;;13.19;100.00;99618.59;5075602;28;19925;-84
2021/11/11 02:22:15;;;;;;;;;;;;;;;12.92;100.00;99615.03;5039555;28;19929;-84
2021/11/11 02:24:47;;;;;;;;;;;;;;;13.11;100.00;99619.94;5083730;28;20023;-83
2021/11/11 02:27:14;;;;;;;;;;;;;;;13.16;100.00;99619.47;5081414;28;19925;-84
2021/11/11 02:29:41;;;;;;;;;;;;;;;13.15;100.00;99609.44;5040100;28;19924;-83
2021/11/11 02:32:08;;;;;;;;;;;;;;;13.09;100.00;99605.53;5075007;28;19924;-83
2021/11/11 02:34:40;;;;;;;;;;;;;;;13.15;100.00;99612.25;5058663;28;19931;-83
2021/11/11 02:37:08;;;;;;;;;;;;;;;13.18;100.00;99612.19;5075300;28;19932;-83
2021/11/11 02:40:13;;;;;;;;;;;;;;;13.17;100.00;99609.81;5067807;28;19925;-83
2021/11/11 02:42:42;;;;;;;;;;;;;;;13.13;100.00;99601.44;5074603;28;20379;-83
2021/11/11 02:45:17;;;;;;;;;;;;;;;13.19;100.00;99590.53;5054938;28;20011;-84
2021/11/11 02:47:48;;;;;;;;;;;;;;;13.15;100.00;99595.41;5055642;28;20322;-83
2021/11/11 02:50:16;;;;;;;;;;;;;;;12.78;100.00;99594.41;5055305;28;19925;-83
2021/11/11 02:52:44;;;;;;;;;;;;;;;12.65;100.00;99596.22;5054242;28;19929;-83
2021/11/11 02:55:12;;;;;;;;;;;;;;;12.75;100.00;99589.66;5074887;28;19929;-84
2021/11/11 02:57:41;;;;;;;;;;;;;;;12.83;100.00;99598.75;5074642;28;20380;-83
2021/11/11 03:00:10;;;;;;;;;;;;;;;13.03;100.00;99598.84;5068836;28;19931;-83
2021/11/11 03:02:40;;;;;;;;;;;;;;;13.17;100.00;99595.78;5047535;28;20392;-83
2021/11/11 03:05:09;;;;;;;;;;;;;;;13.19;100.00;99596.16;5090746;28;19924;-83
2021/11/11 03:07:36;;;;;;;;;;;;;;;13.16;100.00;99591.41;5108726;28;20291;-83
2021/11/11 03:10:05;;;;;;;;;;;;;;;13.05;100.00;99585.19;5057700;28;19924;-83
2021/11/11 03:12:34;;;;;;;;;;;;;;;12.80;100.00;99591.19;5071898;28;20342;-83
2021/11/11 03:15:01;;;;;;;;;;;;;;;12.96;100.00;99587.72;5087523;28;19925;-83
2021/11/11 03:17:29;;;;;;;;;;;;;;;12.82;100.00;99599.16;5074449;28;20299;-84
2021/11/11 03:19:56;;;;;;;;;;;;;;;12.82;100.00;99597.16;5041004;28;19924;-83
2021/11/11 03:22:23;;;;;;;;;;;;;;;12.78;100.00;99602.81;5071014;28;19929;-84
2021/11/11 03:24:53;;;;;;;;;;;;;;;12.77;100.00;99594.06;5051716;28;20011;-83
2021/11/11 03:27:27;;;;;;;;;;;;;;;12.98;100.00;99590.91;5058058;28;19924;-82
2021/11/11 03:29:55;;;;;;;;;;;;;;;13.02;100.00;99586.84;5053894;28;19947;-83
2021/11/11 03:32:23;;;;;;;;;;;;;;;13.00;100.00;99582.84;5037349;28;20506;-83
2021/11/11 03:34:53;;;;;;;;;;;;;;;13.10;100.00;99593.88;5066499;28;19924;-83
2021/11/11 03:37:23;;;;;;;;;;;;;;;13.18;100.00;99588.94;5057292;28;20050;-83
2021/11/11 03:39:51;;;;;;;;;;;;;;;12.58;100.00;99587.16;5053924;28;19932;-83
2021/11/11 03:42:21;;;;;;;;;;;;;;;12.56;100.00;99586.75;5074016;28;21861;-84
2021/11/11 03:44:50;;;;;;;;;;;;;;;12.72;100.00;99590.50;5053656;28;19929;-84
2021/11/11 03:47:19;;;;;;;;;;;;;;;12.19;100.00;99584.91;5069142;28;20066;-84
2021/11/11 03:49:47;;;;;;;;;;;;;;;12.46;100.00;99594.13;5072816;28;19931;-84
2021/11/11 03:52:15;;;;;;;;;;;;;;;12.74;100.00;99593.69;5073504;28;19932;-84
2021/11/11 03:54:42;;;;;;;;;;;;;;;12.85;100.00;99592.69;5090514;28;20380;-84
2021/11/11 03:57:13;;;;;;;;;;;;;;;12.94;100.00;99590.16;5057025;28;19928;-84
2021/11/11 03:59:42;;;;;;;;;;;;;;;12.95;100.00;99588.94;5089759;28;19974;-84
2021/11/11 04:02:13;;;;;;;;;;;;;;;12.56;100.00;99595.97;5073643;28;19930;-84
2021/11/11 04:04:41;;;;;;;;;;;;;;;12.40;100.00;99595.81;5057161;28;19925;-83
2021/11/11 04:07:09;;;;;;;;;;;;;;;12.50;100.00;99592.06;5057345;28;19924;-84
2021/11/11 04:09:36;;;;;;;;;;;;;;;12.67;100.00;99591.00;5073322;28;19990;-84
2021/11/11 04:12:04;;;;;;;;;;;;;;;12.32;100.00;99599.94;5073401;28;19935;-84
2021/11/11 04:14:32;;;;;;;;;;;;;;;12.15;100.00;99601.00;5073065;28;20431;-84
2021/11/11 04:16:59;;;;;;;;;;;;;;;12.40;100.00;99597.84;5056895;28;19924;-84
2021/11/11 04:19:29;;;;;;;;;;;;;;;12.47;100.00;99594.91;5036925;28;19924;-84
2021/11/11 04:21:56;;;;;;;;;;;;;;;12.67;100.00;99582.59;5066836;28;20379;-84
2021/11/11 04:24:23;;;;;;;;;;;;;;;12.71;100.00;99590.94;5046002;28;19951;-84
2021/11/11 04:27:00;;;;;;;;;;;;;;;12.72;100.00;99584.91;5054442;28;19931;-84
2021/11/11 04:29:33;;;;;;;;;;;;;;;12.77;100.00;99592.84;5056929;28;20069;-84
2021/11/11 04:32:02;;;;;;;;;;;;;;;12.77;100.00;99584.41;5055173;28;19924;-84
2021/11/11 04:34:31;;;;;;;;;;;;;;;12.77;100.00;99584.41;5048736;28;19925;-84
2021/11/11 05:00:59;;;;;;;;;;;;;;;12.04;100.00;99577.16;5082004;28;19935;-84
2021/11/11 05:06:01;;;;;;;;;;;;;;;11.81;100.00;99577.84;5089404;28;19924;-84
2021/11/11 05:08:30;;;;;;;;;;;;;;;11.65;100.00;99576.84;5056442;28;20011;-83
2021/11/11 05:10:57;;;;;;;;;;;;;;;11.20;100.00;99578.94;5073301;28;19925;-84
2021/11/11 05:13:26;;;;;;;;;;;;;;;10.91;100.00;99583.19;5051590;28;21418;-83
2021/11/11 05:15:55;;;;;;;;;;;;;;;10.87;100.00;99579.66;5019263;28;19943;-84
2021/11/11 05:18:23;;;;;;;;;;;;;;;10.81;100.00;99575.72;5071841;28;20303;-84
2021/11/11 05:20:56;;;;;;;;;;;;;;;10.87;100.00;99588.03;5055728;28;20269;-84
2021/11/11 05:23:27;;;;;;;;;;;;;;;10.71;100.00;99576.59;5055734;28;19924;-84
2021/11/11 05:25:55;;;;;;;;;;;;;;;10.66;100.00;99586.19;5072017;28;20410;-84
2021/11/11 05:28:22;;;;;;;;;;;;;;;10.69;100.00;99581.81;5105981;28;20380;-84
2021/11/11 05:30:50;;;;;;;;;;;;;;;10.46;100.00;99589.97;5089337;28;20482;-84
2021/11/11 05:33:19;;;;;;;;;;;;;;;10.41;100.00;99591.19;5072289;28;20384;-84
2021/11/11 05:35:46;;;;;;;;;;;;;;;10.42;100.00;99589.22;5068675;28;20380;-83
2021/11/11 05:38:15;;;;;;;;;;;;;;;10.16;100.00;99584.97;5055891;28;20330;-84
2021/11/11 05:40:42;;;;;;;;;;;;;;;9.94;100.00;99585.47;5055544;28;20364;-83
2021/11/11 05:43:10;;;;;;;;;;;;;;;10.04;100.00;99585.41;5052355;28;20288;-83
2021/11/11 05:45:37;;;;;;;;;;;;;;;9.95;100.00;99584.28;5067967;28;19924;-83
2021/11/11 05:48:05;;;;;;;;;;;;;;;9.99;100.00;99582.25;5055901;28;20395;-83
2021/11/11 05:50:36;;;;;;;;;;;;;;;10.00;100.00;99590.22;5039529;28;19948;-84
2021/11/11 05:53:04;;;;;;;;;;;;;;;9.83;100.00;99588.31;5106071;28;19931;-84
2021/11/11 05:55:32;;;;;;;;;;;;;;;9.70;100.00;99589.97;5088726;28;19930;-83
2021/11/11 05:58:04;;;;;;;;;;;;;;;9.62;100.00;99593.22;5072438;28;19929;-84
2021/11/11 06:00:33;;;;;;;;;;;;;;;9.50;100.00;99588.84;5052067;28;19925;-83
2021/11/11 06:03:16;;;;;;;;;;;;;;;9.63;100.00;99597.56;5073663;28;19931;-83
2021/11/11 06:07:36;;;;;;;;;;;;;;;9.54;100.00;99595.22;5091385;28;19943;-86
2021/11/11 06:10:05;;;;;;;;;;;;;;;9.50;100.00;99593.63;5106600;28;19925;-85
2021/11/11 06:12:32;;;;;;;;;;;;;;;9.36;100.00;99600.03;5089911;28;19925;-86
2021/11/11 06:15:00;;;;;;;;;;;;;;;8.98;100.00;99596.13;5103968;28;19925;-85
2021/11/11 06:17:27;;;;;;;;;;;;;;;9.21;100.00;99597.72;5086675;28;19932;-85
2021/11/11 06:19:54;;;;;;;;;;;;;;;9.04;100.00;99594.53;5087730;28;19931;-85
2021/11/11 06:22:22;;;;;;;;;;;;;;;9.11;100.00;99602.91;5062997;28;19925;-86
2021/11/11 06:24:49;;;;;;;;;;;;;;;9.09;100.00;99608.06;5088634;28;20449;-86
2021/11/11 06:27:18;;;;;;;;;;;;;;;8.46;100.00;99602.53;5081173;28;20277;-86
2021/11/11 06:29:47;;;;;;;;;;;;;;;8.91;100.00;99612.88;5085286;28;19970;-85
2021/11/11 06:32:15;;;;;;;;;;;;;;;8.88;100.00;99608.09;5099123;28;19940;-85
2021/11/11 06:34:58;;;;;;;;;;;;;;;8.86;100.00;99606.91;5071397;28;19924;-85
2021/11/11 06:37:25;;;;;;;;;;;;;;;8.74;100.00;99613.66;5089485;28;19932;-86
2021/11/11 06:39:52;;;;;;;;;;;;;;;8.67;100.00;99619.25;5080464;28;19931;-85
2021/11/11 06:42:19;;;;;;;;;;;;;;;8.80;100.00;99616.84;5074725;28;19924;-85
2021/11/11 06:44:48;;;;;;;;;;;;;;;8.75;100.00;99620.03;5070193;28;20371;-87
2021/11/11 06:47:15;;;;;;;;;;;;;;;8.35;100.00;99618.41;5059153;28;19925;-88
2021/11/11 06:49:42;;;;;;;;;;;;;;;8.32;100.00;99618.41;5052290;28;19925;-87
2021/11/11 06:52:09;;;;;;;;;;;;;;;8.33;100.00;99617.22;5060115;28;19925;-84
2021/11/11 06:54:40;;;;;;;;;;;;;;;8.52;100.00;99620.44;5089335;28;19929;-85
2021/11/11 06:57:07;;;;;;;;;;;;;;;8.63;100.00;99617.66;5090495;28;20380;-85
2021/11/11 06:59:38;;;;;;;;;;;;;;;8.52;100.00;99622.41;5101449;28;19925;-85
2021/11/11 07:02:05;;;;;;;;;;;;;;;8.49;100.00;99621.22;5052046;28;19924;-85
2021/11/11 07:04:32;;;;;;;;;;;;;;;8.59;100.00;99620.44;5068819;28;19989;-85
2021/11/11 07:07:01;;;;;;;;;;;;;;;8.63;100.00;99623.22;5068638;28;19924;-85
2021/11/11 07:09:28;;;;;;;;;;;;;;;7.96;100.00;99631.41;5068375;28;19924;-85
2021/11/11 07:11:55;;;;;;;;;;;;;;;7.71;100.00;99630.50;5069739;28;20273;-85
2021/11/11 07:14:22;;;;;;;;;;;;;;;8.36;100.00;99633.94;5067968;28;19925;-84
2021/11/11 07:16:50;;;;;;;;;;;;;;;8.70;100.00;99645.50;5066757;28;19974;-85
2021/11/11 07:19:17;;;;;;;;;;;;;;;8.79;100.00;99643.94;5055097;28;19928;-85
2021/11/11 07:21:44;;;;;;;;;;;;;;;8.89;100.00;99654.28;5050149;28;19925;-85
2021/11/11 07:24:11;;;;;;;;;;;;;;;8.91;100.00;99651.91;5062790;28;19925;-85
2021/11/11 07:26:38;;;;;;;;;;;;;;;8.90;100.00;99643.94;5055946;28;20023;-85
2021/11/11 07:29:05;;;;;;;;;;;;;;;9.16;100.00;99651.88;5088660;28;20288;-85
2021/11/11 07:31:32;;;;;;;;;;;;;;;9.11;100.00;99655.88;5055214;28;19925;-85
2021/11/11 07:34:02;;;;;;;;;;;;;;;8.87;100.00;99651.09;5066634;28;19925;-87
2021/11/11 07:36:30;;;;;;;;;;;;;;;8.86;100.00;99660.66;5069873;28;20322;-87
2021/11/11 07:38:59;;;;;;;;;;;;;;;9.26;100.00;99655.84;5070648;28;20372;-88
2021/11/11 07:41:56;;;;;;;;;;;;;;;9.33;100.00;99653.06;5081790;28;19925;-88
2021/11/11 07:44:25;;;;;;;;;;;;;;;9.65;100.00;99662.94;5041401;28;19925;-88
2021/11/11 07:46:52;;;;;;;;;;;;;;;9.77;100.00;99670.88;5021781;28;19928;-88
2021/11/11 07:49:20;;;;;;;;;;;;;;;9.79;100.00;99667.66;5071919;28;19929;-87
2021/11/11 07:51:48;;;;;;;;;;;;;;;9.26;100.00;99678.16;5051542;28;19929;-87
2021/11/11 07:54:15;;;;;;;;;;;;;;;9.18;100.00;99676.59;5067794;28;19925;-87
2021/11/11 07:56:43;;;;;;;;;;;;;;;9.23;100.00;99679.75;5051956;28;19932;-87
2021/11/11 07:59:13;;;;;;;;;;;;;;;9.37;100.00;99681.72;5049169;28;19931;-87
2021/11/11 08:01:42;;;;;;;;;;;;;;;9.74;100.00;99674.47;5051849;28;19925;-87
2021/11/11 08:04:12;;;;;;;;;;;;;;;9.90;100.00;99676.81;5038042;28;19929;-85
2021/11/11 08:06:39;;;;;;;;;;;;;;;10.11;100.00;99669.19;5055007;28;19924;-85
2021/11/11 08:09:07;;;;;;;;;;;;;;;10.26;100.00;99678.28;5055009;28;19931;-84
2021/11/11 08:11:36;;;;;;;;;;;;;;;10.26;100.00;99675.47;5054500;28;19932;-85
2021/11/11 08:14:05;;;;;;;;;;;;;;;10.12;100.00;99676.34;5055351;28;19932;-85
2021/11/11 08:16:33;;;;;;;;;;;;;;;10.33;100.00;99686.63;5054156;28;19933;-86
2021/11/11 08:19:00;;;;;;;;;;;;;;;10.17;100.00;99678.72;5040401;28;19960;-88
2021/11/11 08:21:52;;;;;;;;;;;;;;;10.10;100.00;99684.31;5052088;28;19929;-89
2021/11/11 08:24:19;;;;;;;;;;;;;;;9.67;100.00;99682.88;5043249;28;20003;-89
2021/11/11 08:26:46;;;;;;;;;;;;;;;9.62;100.00;99691.63;5019325;28;19925;-90
2021/11/11 08:29:14;;;;;;;;;;;;;;;9.94;100.00;99697.13;5034509;28;19925;-88
2021/11/11 08:31:42;;;;;;;;;;;;;;;10.35;100.00;99696.19;5068136;28;19978;-86
2021/11/11 08:34:09;;;;;;;;;;;;;;;10.62;100.00;99699.22;5034260;28;19933;-87
2021/11/11 08:36:36;;;;;;;;;;;;;;;10.78;100.00;99696.75;5084831;28;19932;-87
2021/11/11 08:39:03;;;;;;;;;;;;;;;10.79;100.00;99689.94;5086860;28;19932;-84
2021/11/11 08:41:31;;;;;;;;;;;;;;;10.86;100.00;99696.28;5067076;28;19936;-85
2021/11/11 08:43:58;;;;;;;;;;;;;;;10.74;100.00;99690.34;5042127;28;19925;-86
2021/11/11 08:46:25;;;;;;;;;;;;;;;10.78;100.00;99686.34;5052294;28;19925;-85
2021/11/11 08:48:53;;;;;;;;;;;;;;;10.72;100.00;99692.78;5034353;28;19964;-85
2021/11/11 08:51:20;;;;;;;;;;;;;;;10.98;100.00;99683.00;5058282;28;19925;-86
2021/11/11 08:53:48;;;;;;;;;;;;;;;11.01;100.00;99683.00;5066784;28;19935;-85
2021/11/11 08:56:15;;;;;;;;;;;;;;;11.19;100.00;99683.63;5061944;28;20082;-87
2021/11/11 08:58:45;;;;;;;;;;;;;;;11.03;100.00;99683.34;5073470;28;19939;-85
2021/11/11 09:01:13;;;;;;;;;;;;;;;10.79;100.00;99692.72;5068225;28;19925;-87
2021/11/11 09:03:40;;;;;;;;;;;;;;;10.97;100.00;99693.38;5059213;28;20277;-83
2021/11/11 09:06:08;;;;;;;;;;;;;;;11.20;100.00;99690.00;5065661;28;19928;-84
2021/11/11 09:08:35;;;;;;;;;;;;;;;11.22;100.00;99696.00;5056154;28;19924;-83
2021/11/11 09:11:02;;;;;;;;;;;;;;;11.21;100.00;99691.63;5085268;28;19970;-84
2021/11/11 09:13:30;;;;;;;;;;;;;;;11.13;100.00;99685.28;5058903;28;19928;-85
2021/11/11 09:15:58;;;;;;;;;;;;;;;11.26;100.00;99683.56;5056226;28;19932;-91
2021/11/11 09:18:26;;;;;;;;;;;;;;;11.37;100.00;99694.66;5051297;28;19925;-82
2021/11/11 09:20:58;;;;;;;;;;;;;;;11.39;100.00;99693.03;5051617;28;20280;-82
2021/11/11 09:23:25;;;;;;;;;;;;;;;11.45;100.00;99691.38;5050457;28;19924;-79
2021/11/11 09:25:52;;;;;;;;;;;;;;;11.50;100.00;99688.13;5062512;28;19929;-78
2021/11/11 09:28:19;;;;;;;;;;;;;;;11.62;100.00;99695.19;5060285;28;19939;-81
2021/11/11 09:30:47;;;;;;;;;;;;;;;11.69;100.00;99678.38;5060395;28;19931;-81
2021/11/11 09:33:14;;;;;;;;;;;;;;;11.71;100.00;99687.13;5082428;28;19935;-89
2021/11/11 09:35:41;;;;;;;;;;;;;;;11.77;100.00;99691.88;5050616;28;20372;-89
2021/11/11 09:38:08;;;;;;;;;;;;;;;11.88;100.00;99695.34;5056081;28;20389;-86
2021/11/11 09:40:36;;;;;;;;;;;;;;;11.66;100.00;99685.59;5033714;28;19931;-89
2021/11/11 09:43:03;;;;;;;;;;;;;;;11.59;100.00;99691.25;5029098;28;20010;-89
2021/11/11 09:45:33;;;;;;;;;;;;;;;11.78;100.00;99679.47;5093949;28;19924;-91
2021/11/11 09:48:00;;;;;;;;;;;;;;;11.88;100.00;99680.56;5056825;28;19924;-88
2021/11/11 09:50:29;;;;;;;;;;;;;;;11.56;100.00;99689.28;5064853;28;20354;-83
2021/11/11 09:53:03;;;;;;;;;;;;;;;11.90;100.00;99690.16;5091792;28;19932;-83
2021/11/11 09:58:37;;;;;;;;;;;;;;;12.19;100.00;99687.78;5035749;28;19995;-84
2021/11/11 10:01:06;;;;;;;;;;;;;;;12.33;100.00;99685.59;5042542;28;19925;-84
2021/11/11 10:03:40;;;;;;;;;;;;;;;11.93;100.00;99683.72;5050434;28;20501;-84
2021/11/11 10:06:10;;;;;;;;;;;;;;;12.03;100.00;99681.97;5049417;28;19993;-86
2021/11/11 10:08:42;;;;;;;;;;;;;;;12.14;100.00;99682.66;5066635;28;20039;-82
2021/11/11 10:11:11;;;;;;;;;;;;;;;12.08;100.00;99676.72;5077591;28;19929;-82
2021/11/11 10:13:39;;;;;;;;;;;;;;;12.35;100.00;99680.38;5050682;28;20015;-82
2021/11/11 10:16:09;;;;;;;;;;;;;;;12.44;100.00;99672.25;5057295;28;19932;-82
2021/11/11 10:18:36;;;;;;;;;;;;;;;12.53;100.00;99675.31;5050893;28;20372;-82
2021/11/11 10:21:17;;;;;;;;;;;;;;;12.31;100.00;99673.22;5050544;28;19931;-88
2021/11/11 10:23:44;;;;;;;;;;;;;;;12.20;100.00;99676.16;5050536;28;19951;-82
2021/11/11 10:26:16;;;;;;;;;;;;;;;12.35;100.00;99677.56;5049341;28;19925;-82
2021/11/11 10:28:44;;;;;;;;;;;;;;;12.44;100.00;99685.44;5052294;28;20394;-81
2021/11/11 10:31:12;;;;;;;;;;;;;;;12.51;100.00;99683.34;5056366;28;19948;-82
2021/11/11 10:33:59;;;;;;;;;;;;;;;12.61;100.00;99679.63;5041813;28;19925;-83
2021/11/11 10:36:37;;;;;;;;;;;;;;;12.54;100.00;99673.31;5049628;28;19990;-82
2021/11/11 10:39:17;;;;;;;;;;;;;;;12.39;100.00;99667.09;5044459;28;19924;-82
2021/11/11 10:41:44;;;;;;;;;;;;;;;11.75;100.00;99666.31;5050649;28;19979;-84
2021/11/11 10:44:19;;;;;;;;;;;;;;;11.42;100.00;99663.44;5082228;28;20376;-82
2021/11/11 10:46:47;;;;;;;;;;;;;;;11.63;100.00;99654.84;5032156;28;19931;-82
2021/11/11 10:49:18;;;;;;;;;;;;;;;12.03;100.00;99651.16;5045554;28;19925;-82
2021/11/11 10:51:47;;;;;;;;;;;;;;;11.73;100.00;99648.31;5050850;28;19929;-83
2021/11/11 10:54:14;;;;;;;;;;;;;;;11.70;100.00;99641.56;5085663;28;20384;-82
2021/11/11 10:56:47;;;;;;;;;;;;;;;12.06;100.00;99634.31;5054204;28;19931;-82
2021/11/11 10:59:19;;;;;;;;;;;;;;;11.89;100.00;99638.13;5046343;28;19924;-82
2021/11/11 11:02:00;;;;;;;;;;;;;;;12.26;100.00;99643.66;5053021;28;19924;-82
2021/11/11 11:04:28;;;;;;;;;;;;;;;12.39;100.00;99636.25;5043915;28;19925;-82
2021/11/11 11:07:11;;;;;;;;;;;;;;;11.71;100.00;99631.94;5038069;28;19931;-81
2021/11/11 11:09:39;;;;;;;;;;;;;;;12.01;100.00;99628.41;5048930;28;19928;-83
2021/11/11 11:12:25;;;;;;;;;;;;;;;10.99;100.00;99624.66;5056964;28;19924;-81
2021/11/11 11:14:53;;;;;;;;;;;;;;;11.08;100.00;99637.38;5054941;28;19925;-81
2021/11/11 11:17:20;;;;;;;;;;;;;;;11.99;100.00;99626.03;5056087;28;19925;-82
2021/11/11 11:19:49;;;;;;;;;;;;;;;11.66;100.00;99621.19;5056782;28;20203;-81
2021/11/11 11:22:20;;;;;;;;;;;;;;;12.33;100.00;99618.34;5055412;28;20007;-81
2021/11/11 11:24:59;;;;;;;;;;;;;;;12.63;100.00;99615.47;5055343;28;19932;-81
2021/11/11 11:27:33;;;;;;;;;;;;;;;12.85;100.00;99615.94;5055084;28;19932;-82
2021/11/11 11:30:07;;;;;;;;;;;;;;;12.94;100.00;99613.38;5088335;28;19932;-82
2021/11/11 11:32:35;;;;;;;;;;;;;;;13.15;100.00;99612.25;5060816;28;19932;-85
2021/11/11 11:35:27;;;;;;;;;;;;;;;13.24;100.00;99602.06;5051830;28;19932;-84
2021/11/11 11:37:55;;;;;;;;;;;;;;;13.20;100.00;99601.34;5053798;28;19925;-86
2021/11/11 11:40:23;;;;;;;;;;;;;;;12.22;100.00;99595.28;5052360;28;19925;-84
2021/11/11 11:42:54;;;;;;;;;;;;;;;12.14;100.00;99599.41;5053358;28;19931;-91
2021/11/11 11:45:22;;;;;;;;;;;;;;;12.73;100.00;99597.72;5052052;28;20003;-90
2021/11/11 11:50:26;;;;;;;;;;;;;;;12.71;100.00;99600.13;5035332;28;20790;-90
2021/11/11 11:53:03;;;;;;;;;;;;;;;12.82;100.00;99587.94;5062838;28;19925;-88
2021/11/11 11:55:45;;;;;;;;;;;;;;;12.91;100.00;99585.38;5079637;28;20019;-88
2021/11/11 11:58:20;;;;;;;;;;;;;;;13.12;100.00;99582.25;5065108;28;19936;-89
2021/11/11 12:06:41;;;;;;;;;;;;;;;13.25;100.00;99566.38;5053475;28;19963;-83
2021/11/11 12:39:41;;;;;;;;;;;;;;;14.04;100.00;99529.41;5069102;28;19979;-85
2021/11/11 12:42:11;;;;;;;;;;;;;;;14.24;100.00;99526.56;5051897;28;19936;-85
2021/11/11 12:44:57;;;;;;;;;;;;;;;14.29;100.00;99524.06;5069065;28;19933;-85
2021/11/11 12:47:36;;;;;;;;;;;;;;;14.39;100.00;99522.19;5069291;28;20295;-85
2021/11/11 12:50:22;;;;;;;;;;;;;;;14.35;100.00;99513.06;5036137;28;19932;-85
2021/11/11 12:53:09;;;;;;;;;;;;;;;14.46;100.00;99516.44;5051984;28;19982;-85
2021/11/11 12:55:37;;;;;;;;;;;;;;;14.49;100.00;99510.69;5068587;28;20023;-84
2021/11/11 12:58:07;;;;;;;;;;;;;;;14.12;100.00;99505.56;5052163;28;19925;-85
2021/11/11 13:00:40;;;;;;;;;;;;;;;13.99;100.00;99509.47;5052096;28;19925;-85
2021/11/11 13:03:08;;;;;;;;;;;;;;;14.20;100.00;99498.53;5051984;28;19925;-85
2021/11/11 13:05:52;;;;;;;;;;;;;;;14.11;100.00;99495.56;5035337;28;19925;-85
2021/11/11 13:08:20;;;;;;;;;;;;;;;14.18;100.00;99500.19;5051874;28;19936;-84
2021/11/11 13:11:04;;;;;;;;;;;;;;;14.26;100.00;99501.66;5053087;28;19925;-85
2021/11/11 13:13:33;;;;;;;;;;;;;;;14.37;100.00;99490.94;5051566;28;19933;-84
2021/11/11 13:16:14;;;;;;;;;;;;;;;14.13;100.00;99492.31;5051262;28;19936;-84
2021/11/11 13:18:44;;;;;;;;;;;;;;;14.27;100.00;99498.41;5085360;28;19924;-84
2021/11/11 13:21:13;;;;;;;;;;;;;;;14.14;100.00;99493.88;5052034;28;20015;-84
2021/11/11 13:23:50;;;;;;;;;;;;;;;14.11;100.00;99489.13;5051621;28;19932;-84
2021/11/11 13:58:49;;;;;;;;;;;;;;;14.07;100.00;99477.19;5034425;28;19924;-84
2021/11/11 14:01:40;;;;;;;;;;;;;;;14.41;100.00;99474.78;5051540;28;19925;-85
2021/11/11 15:18:09;;;;;;;;;;;;;;;14.24;100.00;99392.47;5092015;28;19930;-84
2021/11/11 15:20:57;;;;;;;;;;;;;;;14.81;100.00;99385.34;5103646;28;20387;-84
2021/11/11 15:57:30;;;;;;;;;;;;;;;14.64;100.00;99348.03;5046443;28;19931;-84
2021/11/11 16:25:03;;;;;;;;;;;;;;;14.64;100.00;99350.84;5073785;28;19947;-84
2021/11/11 16:27:30;;;;;;;;;;;;;;;13.04;100.00;99353.59;5058140;28;20275;-84
2021/11/11 16:30:03;;;;;;;;;;;;;;;13.22;100.00;99362.41;5080378;28;19924;-84
2021/11/11 16:32:30;;;;;;;;;;;;;;;13.74;100.00;99368.81;5064930;28;20179;-84
2021/11/11 16:34:58;;;;;;;;;;;;;;;13.99;100.00;99357.78;5085268;28;20298;-84
2021/11/11 16:37:31;;;;;;;;;;;;;;;14.21;100.00;99347.56;5097365;28;20071;-84
2021/11/11 16:39:58;;;;;;;;;;;;;;;13.59;100.00;99333.88;5097255;28;19924;-84
2021/11/11 16:42:25;;;;;;;;;;;;;;;14.18;100.00;99345.63;5049412;28;20014;-84
2021/11/11 16:44:52;;;;;;;;;;;;;;;14.49;100.00;99341.22;5096971;28;19931;-84
2021/11/11 16:47:19;;;;;;;;;;;;;;;14.66;100.00;99345.53;5096839;28;19931;-84
2021/11/11 16:49:47;;;;;;;;;;;;;;;14.06;100.00;99329.47;5052792;28;19939;-84